createdAt,value
2024-04-21T00:01:52.053Z,3.33
2024-04-21T00:04:25.720Z,3.33
2024-04-21T00:06:56.315Z,3.35
2024-04-21T00:09:27.624Z,3.33
2024-04-21T00:11:58.354Z,3.30
2024-04-21T00:14:29.803Z,3.29
2024-04-21T00:17:00.310Z,3.27
2024-04-21T00:19:31.888Z,3.27
2024-04-21T00:22:02.220Z,3.26
2024-04-21T00:24:33.654Z,3.27
2024-04-21T00:27:04.100Z,3.27
2024-04-21T00:29:35.752Z,3.29
2024-04-21T00:32:06.169Z,3.30
2024-04-21T00:34:37.750Z,3.29
2024-04-21T00:37:07.858Z,3.24
2024-04-21T00:39:40.034Z,3.19
2024-04-21T00:42:10.321Z,3.16
2024-04-21T00:44:41.884Z,3.13
2024-04-21T00:47:11.945Z,3.11
2024-04-21T00:49:43.977Z,3.08
2024-04-21T00:52:14.282Z,3.06
2024-04-21T00:54:45.855Z,3.06
2024-04-21T00:57:15.871Z,3.07
2024-04-21T00:59:47.627Z,3.06
2024-04-21T01:02:17.864Z,3.04
2024-04-21T01:04:49.850Z,3.03
2024-04-21T01:07:20.347Z,3.02
2024-04-21T01:09:51.997Z,3.03
2024-04-21T01:12:22.307Z,3.00
2024-04-21T01:14:53.881Z,2.99
2024-04-21T01:17:24.130Z,2.98
2024-04-21T01:19:55.851Z,2.97
2024-04-21T01:22:26.187Z,2.96
2024-04-21T01:24:57.879Z,2.98
2024-04-21T01:27:28.149Z,3.00
2024-04-21T01:29:59.702Z,3.00
2024-04-21T01:32:30.303Z,2.99
2024-04-21T01:35:02.004Z,2.98
2024-04-21T01:37:32.409Z,2.98
2024-04-21T01:40:04.623Z,2.99
2024-04-21T01:42:34.816Z,3.01
2024-04-21T01:45:06.559Z,3.01
2024-04-21T01:47:36.833Z,3.00
2024-04-21T01:50:08.600Z,2.95
2024-04-21T01:52:38.968Z,2.94
2024-04-21T01:55:10.561Z,2.95
2024-04-21T01:57:40.850Z,2.94
2024-04-21T02:00:12.187Z,2.96
2024-04-21T02:02:47.780Z,2.97
2024-04-21T02:05:18.206Z,2.96
2024-04-21T02:07:51.762Z,2.97
2024-04-21T02:10:22.545Z,2.95
2024-04-21T02:12:53.209Z,2.89
2024-04-21T02:15:23.762Z,2.83
2024-04-21T02:17:55.196Z,2.79
2024-04-21T02:20:25.533Z,2.76
2024-04-21T02:22:56.986Z,2.74
2024-04-21T02:25:27.805Z,2.72
2024-04-21T02:27:59.299Z,2.71
2024-04-21T02:30:29.796Z,2.68
2024-04-21T02:33:03.267Z,2.66
2024-04-21T02:35:33.631Z,2.67
2024-04-21T02:38:05.192Z,2.65
2024-04-21T02:40:35.767Z,2.63
2024-04-21T02:43:07.897Z,2.62
2024-04-21T02:45:38.406Z,2.61
2024-04-21T02:48:09.959Z,2.63
2024-04-21T02:50:40.791Z,2.63
2024-04-21T02:53:12.446Z,2.62
2024-04-21T02:55:43.814Z,2.58
2024-04-21T02:58:15.762Z,2.56
2024-04-21T03:00:46.168Z,2.57
2024-04-21T03:03:17.960Z,2.58
2024-04-21T03:05:54.839Z,2.59
2024-04-21T03:08:26.595Z,2.59
2024-04-21T03:10:56.815Z,2.56
2024-04-21T03:13:28.834Z,2.56
2024-04-21T03:15:59.120Z,2.56
2024-04-21T03:18:30.754Z,2.56
2024-04-21T03:21:01.506Z,2.52
2024-04-21T03:23:33.246Z,2.48
2024-04-21T03:26:03.657Z,2.47
2024-04-21T03:28:35.115Z,2.49
2024-04-21T03:31:05.461Z,2.51
2024-04-21T03:33:37.016Z,2.54
2024-04-21T03:36:10.504Z,2.57
2024-04-21T03:38:42.622Z,2.57
2024-04-21T03:41:12.775Z,2.55
2024-04-21T03:43:45.703Z,2.51
2024-04-21T03:46:15.820Z,2.50
2024-04-21T03:48:48.044Z,2.50
2024-04-21T03:51:18.165Z,2.51
2024-04-21T03:53:49.713Z,2.50
2024-04-21T03:56:19.834Z,2.48
2024-04-21T03:58:51.494Z,2.48
2024-04-21T04:01:21.999Z,2.49
2024-04-21T04:03:53.698Z,2.53
2024-04-21T04:06:25.407Z,2.54
2024-04-21T04:08:59.758Z,2.56
2024-04-21T04:11:32.469Z,2.59
2024-04-21T04:14:02.655Z,2.60
2024-04-21T04:16:34.329Z,2.62
2024-04-21T04:19:04.655Z,2.66
2024-04-21T04:21:36.187Z,2.66
2024-04-21T04:24:06.623Z,2.65
2024-04-21T04:26:38.378Z,2.67
2024-04-21T04:29:09.006Z,2.71
2024-04-21T04:31:40.973Z,2.77
2024-04-21T04:34:11.095Z,2.81
2024-04-21T04:36:42.533Z,2.85
2024-04-21T04:39:12.775Z,2.89
2024-04-21T04:41:44.416Z,2.90
2024-04-21T04:44:14.637Z,2.94
2024-04-21T04:46:46.086Z,3.00
2024-04-21T04:49:16.426Z,3.05
2024-04-21T04:51:47.988Z,3.16
2024-04-21T04:54:18.290Z,3.24
2024-04-21T04:56:49.642Z,3.35
2024-04-21T04:59:19.964Z,3.48
2024-04-21T05:01:51.765Z,3.62
2024-04-21T05:04:22.366Z,3.75
2024-04-21T05:06:54.155Z,3.89
2024-04-21T05:09:24.737Z,3.98
2024-04-21T05:11:56.302Z,4.00
2024-04-21T05:14:27.126Z,4.03
2024-04-21T05:16:58.883Z,4.07
2024-04-21T05:19:29.204Z,4.12
2024-04-21T05:22:01.410Z,4.19
2024-04-21T05:24:32.009Z,4.27
2024-04-21T05:27:04.291Z,4.34
2024-04-21T05:29:34.317Z,4.44
2024-04-21T05:32:06.493Z,4.57
2024-04-21T05:34:38.019Z,4.65
2024-04-21T05:37:09.406Z,4.67
2024-04-21T05:39:39.683Z,4.68
2024-04-21T05:42:11.448Z,4.73
2024-04-21T05:44:41.472Z,4.77
2024-04-21T05:47:12.989Z,4.82
2024-04-21T05:49:43.334Z,4.81
2024-04-21T05:52:16.133Z,4.77
2024-04-21T05:54:46.445Z,4.75
2024-04-21T05:57:18.100Z,4.75
2024-04-21T05:59:48.321Z,4.81
2024-04-21T06:02:20.087Z,4.87
2024-04-21T06:04:50.555Z,4.93
2024-04-21T06:07:22.660Z,5.05
2024-04-21T06:09:55.771Z,5.19
2024-04-21T06:12:27.425Z,5.33
2024-04-21T06:14:57.535Z,5.47
2024-04-21T06:17:29.228Z,5.59
2024-04-21T06:19:59.619Z,5.72
2024-04-21T06:22:31.168Z,5.86
2024-04-21T06:25:01.641Z,5.94
2024-04-21T06:27:33.771Z,5.95
2024-04-21T06:30:04.194Z,5.97
2024-04-21T06:32:35.840Z,6.10
2024-04-21T06:35:07.760Z,6.18
2024-04-21T06:37:40.897Z,6.25
2024-04-21T06:40:12.778Z,6.37
2024-04-21T06:42:46.270Z,6.54
2024-04-21T06:45:16.887Z,6.71
2024-04-21T06:47:49.175Z,6.89
2024-04-21T06:50:19.489Z,7.06
2024-04-21T06:52:51.040Z,7.18
2024-04-21T06:55:21.557Z,7.28
2024-04-21T06:57:53.469Z,7.40
2024-04-21T07:00:23.948Z,7.53
2024-04-21T07:02:55.329Z,7.55
2024-04-21T07:05:25.934Z,7.54
2024-04-21T07:07:57.178Z,7.57
2024-04-21T07:10:28.065Z,7.59
2024-04-21T07:12:59.524Z,7.67
2024-04-21T07:15:30.110Z,7.68
2024-04-21T07:18:01.708Z,7.57
2024-04-21T07:20:32.091Z,7.53
2024-04-21T07:23:03.540Z,7.54
2024-04-21T07:25:33.997Z,7.58
2024-04-21T07:28:05.753Z,7.73
2024-04-21T07:30:36.294Z,7.91
2024-04-21T07:33:07.634Z,8.13
2024-04-21T07:35:38.125Z,8.44
2024-04-21T07:38:09.462Z,8.94
2024-04-21T07:40:39.892Z,9.36
2024-04-21T07:43:13.373Z,9.76
2024-04-21T07:45:46.381Z,10.04
2024-04-21T07:48:18.790Z,10.17
2024-04-21T07:50:49.206Z,10.04
2024-04-21T07:53:20.734Z,9.84
2024-04-21T07:55:51.067Z,9.65
2024-04-21T07:58:22.577Z,9.49
2024-04-21T08:00:52.876Z,9.32
2024-04-21T08:03:24.401Z,9.20
2024-04-21T08:05:55.003Z,9.13
2024-04-21T08:08:26.770Z,9.11
2024-04-21T08:11:04.548Z,9.08
2024-04-21T08:13:36.949Z,8.99
2024-04-21T08:16:07.828Z,8.99
2024-04-21T08:18:39.456Z,9.01
2024-04-21T08:21:10.425Z,8.94
2024-04-21T08:23:42.028Z,8.77
2024-04-21T08:26:12.306Z,8.56
2024-04-21T08:28:44.119Z,8.31
2024-04-21T08:31:14.234Z,8.06
2024-04-21T08:33:45.926Z,7.90
2024-04-21T08:36:16.099Z,7.74
2024-04-21T08:38:47.650Z,7.58
2024-04-21T08:41:19.762Z,7.44
2024-04-21T08:43:51.790Z,7.34
2024-04-21T08:46:21.867Z,7.20
2024-04-21T08:48:53.836Z,7.09
2024-04-21T08:51:24.085Z,7.00
2024-04-21T08:53:55.813Z,6.94
2024-04-21T08:56:25.932Z,6.93
2024-04-21T08:58:57.723Z,7.00
2024-04-21T09:01:28.049Z,7.17
2024-04-21T09:04:00.038Z,7.33
2024-04-21T09:06:30.220Z,7.62
2024-04-21T09:09:02.119Z,7.93
2024-04-21T09:11:32.397Z,8.18
2024-04-21T09:14:04.317Z,8.36
2024-04-21T09:16:34.530Z,8.47
2024-04-21T09:19:06.165Z,8.51
2024-04-21T09:21:36.489Z,8.50
2024-04-21T09:24:08.435Z,8.47
2024-04-21T09:26:38.593Z,8.49
2024-04-21T09:29:10.429Z,8.62
2024-04-21T09:31:40.536Z,8.66
2024-04-21T09:34:12.939Z,8.68
2024-04-21T09:36:43.248Z,8.76
2024-04-21T09:39:14.996Z,8.82
2024-04-21T09:41:51.457Z,8.92
2024-04-21T09:44:22.910Z,9.00
2024-04-21T09:46:53.341Z,9.01
2024-04-21T09:49:25.412Z,8.92
2024-04-21T09:51:56.375Z,8.85
2024-04-21T09:54:27.997Z,8.77
2024-04-21T09:57:01.237Z,8.76
2024-04-21T09:59:33.260Z,8.79
2024-04-21T10:02:03.581Z,8.64
2024-04-21T10:04:35.299Z,8.55
2024-04-21T10:07:06.021Z,8.61
2024-04-21T10:09:37.731Z,8.79
2024-04-21T10:12:08.356Z,9.01
2024-04-21T10:14:39.908Z,9.27
2024-04-21T10:17:10.341Z,9.50
2024-04-21T10:19:42.197Z,9.82
2024-04-21T10:22:12.602Z,10.29
2024-04-21T10:24:44.407Z,10.63
2024-04-21T10:27:21.739Z,10.85
2024-04-21T10:29:53.021Z,10.92
2024-04-21T10:32:26.978Z,10.84
2024-04-21T10:34:58.591Z,10.69
2024-04-21T10:37:29.037Z,10.62
2024-04-21T10:40:01.224Z,10.51
2024-04-21T10:42:35.008Z,10.23
2024-04-21T10:45:07.157Z,10.03
2024-04-21T10:47:37.349Z,9.82
2024-04-21T10:50:09.225Z,9.60
2024-04-21T10:52:39.443Z,9.37
2024-04-21T10:55:10.905Z,9.22
2024-04-21T10:57:41.248Z,9.07
2024-04-21T11:00:13.193Z,8.86
2024-04-21T11:02:43.538Z,8.62
2024-04-21T11:05:15.996Z,8.50
2024-04-21T11:07:48.512Z,8.43
2024-04-21T11:10:21.631Z,8.29
2024-04-21T11:12:53.146Z,8.21
2024-04-21T11:15:24.552Z,8.11
2024-04-21T11:17:58.716Z,8.02
2024-04-21T11:20:30.527Z,7.98
2024-04-21T11:23:00.744Z,8.02
2024-04-21T11:25:32.282Z,8.06
2024-04-21T11:28:09.373Z,8.13
2024-04-21T11:30:41.401Z,8.13
2024-04-21T11:33:12.226Z,8.17
2024-04-21T11:35:43.731Z,8.23
2024-04-21T11:38:14.365Z,8.25
2024-04-21T11:40:46.017Z,8.15
2024-04-21T11:43:17.769Z,8.08
2024-04-21T11:45:50.248Z,8.12
2024-04-21T11:48:20.812Z,8.17
2024-04-21T11:50:52.547Z,8.26
2024-04-21T11:53:23.070Z,8.37
2024-04-21T11:55:54.625Z,8.46
2024-04-21T11:58:25.186Z,8.60
2024-04-21T12:00:57.168Z,8.77
2024-04-21T12:03:27.563Z,8.91
2024-04-21T12:05:59.406Z,8.98
2024-04-21T12:08:29.630Z,8.98
2024-04-21T12:11:01.326Z,8.90
2024-04-21T12:13:31.764Z,8.84
2024-04-21T12:16:04.004Z,8.78
2024-04-21T12:18:34.630Z,8.79
2024-04-21T12:21:06.263Z,8.85
2024-04-21T12:23:36.493Z,8.85
2024-04-21T12:26:08.646Z,8.79
2024-04-21T12:28:38.873Z,8.69
2024-04-21T12:31:10.335Z,8.66
2024-04-21T12:33:40.848Z,8.64
2024-04-21T12:36:12.404Z,8.62
2024-04-21T12:38:42.622Z,8.68
2024-04-21T12:41:14.181Z,8.76
2024-04-21T12:43:44.404Z,8.76
2024-04-21T12:46:16.052Z,8.74
2024-04-21T12:48:46.501Z,8.68
2024-04-21T12:51:17.930Z,8.66
2024-04-21T12:53:48.480Z,8.62
2024-04-21T12:56:19.917Z,8.56
2024-04-21T12:58:50.249Z,8.46
2024-04-21T13:01:21.811Z,8.40
2024-04-21T13:03:52.439Z,8.32
2024-04-21T13:06:24.002Z,8.20
2024-04-21T13:08:54.711Z,8.10
2024-04-21T13:11:26.365Z,8.03
2024-04-21T13:13:56.797Z,8.02
2024-04-21T13:16:28.256Z,8.13
2024-04-21T13:18:59.543Z,8.31
2024-04-21T13:21:30.938Z,8.42
2024-04-21T13:24:01.473Z,8.40
2024-04-21T13:26:32.843Z,8.27
2024-04-21T13:29:03.346Z,8.18
2024-04-21T13:31:34.856Z,8.08
2024-04-21T13:34:05.294Z,8.03
2024-04-21T13:36:40.345Z,7.98
2024-04-21T13:39:13.238Z,7.90
2024-04-21T13:41:43.359Z,7.78
2024-04-21T13:44:14.813Z,7.65
2024-04-21T13:46:44.938Z,7.56
2024-04-21T13:49:16.407Z,7.56
2024-04-21T13:51:46.704Z,7.67
2024-04-21T13:54:18.456Z,7.84
2024-04-21T13:56:48.785Z,8.06
2024-04-21T13:59:20.449Z,8.17
2024-04-21T14:01:50.839Z,8.23
2024-04-21T14:04:23.895Z,8.27
2024-04-21T14:06:54.376Z,8.26
2024-04-21T14:09:26.448Z,8.20
2024-04-21T14:11:57.080Z,8.11
2024-04-21T14:14:28.938Z,8.07
2024-04-21T14:16:59.485Z,7.99
2024-04-21T14:19:31.179Z,7.87
2024-04-21T14:22:01.695Z,7.78
2024-04-21T14:24:33.205Z,7.79
2024-04-21T14:27:03.672Z,7.93
2024-04-21T14:29:37.029Z,7.97
2024-04-21T14:32:11.555Z,7.97
2024-04-21T14:34:42.229Z,7.99
2024-04-21T14:37:13.756Z,8.06
2024-04-21T14:39:43.845Z,8.15
2024-04-21T14:42:20.883Z,8.19
2024-04-21T14:45:02.268Z,8.28
2024-04-21T14:47:34.694Z,8.38
2024-04-21T14:50:05.256Z,8.42
2024-04-21T14:52:39.781Z,8.45
2024-04-21T14:55:12.675Z,8.48
2024-04-21T14:57:46.129Z,8.38
2024-04-21T15:00:19.366Z,8.24
2024-04-21T15:02:49.580Z,8.14
2024-04-21T15:05:21.203Z,7.99
2024-04-21T15:07:51.316Z,7.80
2024-04-21T15:10:23.541Z,7.64
2024-04-21T15:12:53.915Z,7.50
2024-04-21T15:15:29.019Z,7.35
2024-04-21T15:18:01.886Z,7.24
2024-04-21T15:20:32.256Z,7.19
2024-04-21T15:23:04.005Z,7.19
2024-04-21T15:25:34.788Z,7.25
2024-04-21T15:28:06.713Z,7.31
2024-04-21T15:30:38.172Z,7.32
2024-04-21T15:33:10.173Z,7.28
2024-04-21T15:35:41.855Z,7.17
2024-04-21T15:38:13.322Z,7.09
2024-04-21T15:40:43.943Z,7.01
2024-04-21T15:43:15.560Z,6.89
2024-04-21T15:45:45.841Z,6.80
2024-04-21T15:48:18.215Z,6.75
2024-04-21T15:50:49.015Z,6.78
2024-04-21T15:53:20.597Z,6.83
2024-04-21T15:55:50.927Z,6.85
2024-04-21T15:58:22.641Z,6.86
2024-04-21T16:00:53.884Z,6.85
2024-04-21T16:03:25.456Z,6.79
2024-04-21T16:05:56.218Z,6.71
2024-04-21T16:08:30.541Z,6.58
2024-04-21T16:11:05.296Z,6.47
2024-04-21T16:13:36.149Z,6.40
2024-04-21T16:16:07.937Z,6.27
2024-04-21T16:18:38.580Z,6.16
2024-04-21T16:21:10.551Z,6.09
2024-04-21T16:23:41.805Z,6.01
2024-04-21T16:26:13.251Z,5.94
2024-04-21T16:28:43.851Z,5.89
2024-04-21T16:31:15.689Z,5.88
2024-04-21T16:33:46.427Z,5.86
2024-04-21T16:36:18.031Z,5.81
2024-04-21T16:38:48.676Z,5.77
2024-04-21T16:41:20.510Z,5.74
2024-04-21T16:43:51.156Z,5.68
2024-04-21T16:46:23.331Z,5.62
2024-04-21T16:48:55.135Z,5.57
2024-04-21T16:51:27.044Z,5.53
2024-04-21T16:53:57.568Z,5.48
2024-04-21T16:56:29.116Z,5.44
2024-04-21T16:58:59.861Z,5.41
2024-04-21T17:01:32.054Z,5.41
2024-04-21T17:04:02.771Z,5.43
2024-04-21T17:06:34.830Z,5.46
2024-04-21T17:09:05.348Z,5.45
2024-04-21T17:11:37.102Z,5.42
2024-04-21T17:14:07.330Z,5.36
2024-04-21T17:16:39.031Z,5.30
2024-04-21T17:19:09.648Z,5.25
2024-04-21T17:21:41.365Z,5.22
2024-04-21T17:24:11.698Z,5.21
2024-04-21T17:26:43.568Z,5.18
2024-04-21T17:29:13.782Z,5.17
2024-04-21T17:31:45.650Z,5.18
2024-04-21T17:34:17.772Z,5.18
2024-04-21T17:36:51.100Z,5.18
2024-04-21T17:39:21.314Z,5.14
2024-04-21T17:41:52.791Z,5.09
2024-04-21T17:44:23.210Z,5.05
2024-04-21T17:46:54.795Z,5.05
2024-04-21T17:49:25.185Z,5.09
2024-04-21T17:51:56.961Z,5.14
2024-04-21T17:54:27.571Z,5.16
2024-04-21T17:56:59.014Z,5.17
2024-04-21T17:59:29.131Z,5.18
2024-04-21T18:02:00.893Z,5.16
2024-04-21T18:04:31.267Z,5.16
2024-04-21T18:07:03.313Z,5.15
2024-04-21T18:09:33.604Z,5.16
2024-04-21T18:12:06.078Z,5.14
2024-04-21T18:14:36.299Z,5.11
2024-04-21T18:17:13.992Z,5.09
2024-04-21T18:19:53.955Z,5.04
2024-04-21T18:22:24.339Z,4.99
2024-04-21T18:24:56.132Z,4.95
2024-04-21T18:27:26.145Z,4.90
2024-04-21T18:29:58.665Z,4.88
2024-04-21T18:32:28.989Z,4.87
2024-04-21T18:35:00.730Z,4.85
2024-04-21T18:37:31.283Z,4.79
2024-04-21T18:40:06.592Z,4.76
2024-04-21T18:42:39.160Z,4.77
2024-04-21T18:45:11.106Z,4.76
2024-04-21T18:47:42.506Z,4.76
2024-04-21T18:50:12.898Z,4.77
2024-04-21T18:52:44.932Z,4.77
2024-04-21T18:55:15.526Z,4.76
2024-04-21T18:57:46.969Z,4.75
2024-04-21T19:00:17.785Z,4.74
2024-04-21T19:02:50.583Z,4.72
2024-04-21T19:05:21.197Z,4.74
2024-04-21T19:07:52.540Z,4.75
2024-04-21T19:10:23.171Z,4.75
2024-04-21T19:12:54.820Z,4.74
2024-04-21T19:15:25.557Z,4.73
2024-04-21T19:17:57.288Z,4.70
2024-04-21T19:20:28.250Z,4.64
2024-04-21T19:23:00.416Z,4.61
2024-04-21T19:25:30.758Z,4.55
2024-04-21T19:28:02.356Z,4.49
2024-04-21T19:30:32.716Z,4.50
2024-04-21T19:33:05.673Z,4.54
2024-04-21T19:35:36.031Z,4.56
2024-04-21T19:38:07.687Z,4.56
2024-04-21T19:40:38.057Z,4.57
2024-04-21T19:43:09.795Z,4.60
2024-04-21T19:45:40.398Z,4.62
2024-04-21T19:48:13.134Z,4.63
2024-04-21T19:50:43.399Z,4.60
2024-04-21T19:53:15.360Z,4.57
2024-04-21T19:55:45.925Z,4.55
2024-04-21T19:58:17.360Z,4.56
2024-04-21T20:00:47.731Z,4.57
2024-04-21T20:03:19.425Z,4.56
2024-04-21T20:05:49.855Z,4.54
2024-04-21T20:08:21.511Z,4.50
2024-04-21T20:10:51.976Z,4.49
2024-04-21T20:13:23.987Z,4.44
2024-04-21T20:16:13.761Z,4.37
2024-04-21T20:18:51.538Z,4.34
2024-04-21T20:21:23.347Z,4.34
2024-04-21T20:23:54.068Z,4.36
2024-04-21T20:26:25.627Z,4.35
2024-04-21T20:28:55.947Z,4.36
2024-04-21T20:31:27.922Z,4.38
2024-04-21T20:33:58.254Z,4.40
2024-04-21T20:36:29.694Z,4.40
2024-04-21T20:39:00.171Z,4.40
2024-04-21T20:41:31.975Z,4.36
2024-04-21T20:44:02.599Z,4.36
2024-04-21T20:46:34.310Z,4.38
2024-04-21T20:49:06.476Z,4.41
2024-04-21T20:51:37.985Z,4.39
2024-04-21T20:54:08.416Z,4.37
2024-04-21T20:56:40.059Z,4.37
2024-04-21T20:59:10.355Z,4.35
2024-04-21T21:01:41.895Z,4.36
2024-04-21T21:04:14.109Z,4.37
2024-04-21T21:06:45.762Z,4.37
2024-04-21T21:09:15.890Z,4.39
2024-04-21T21:11:47.535Z,4.39
2024-04-21T21:14:17.859Z,4.40
2024-04-21T21:16:49.320Z,4.39
2024-04-21T21:19:19.487Z,4.36
2024-04-21T21:21:51.081Z,4.36
2024-04-21T21:24:21.306Z,4.36
2024-04-21T21:26:53.529Z,4.35
2024-04-21T21:29:23.704Z,4.34
2024-04-21T21:31:55.790Z,4.35
2024-04-21T21:34:26.427Z,4.34
2024-04-21T21:36:58.258Z,4.34
2024-04-21T21:39:28.366Z,4.33
2024-04-21T21:42:01.132Z,4.33
2024-04-21T21:44:31.291Z,4.32
2024-04-21T21:47:02.929Z,4.32
2024-04-21T21:49:32.993Z,4.33
2024-04-21T21:52:05.146Z,4.34
2024-04-21T21:54:36.101Z,4.32
2024-04-21T21:57:07.600Z,4.29
2024-04-21T21:59:37.623Z,4.27
2024-04-21T22:02:09.476Z,4.23
2024-04-21T22:04:39.893Z,4.20
2024-04-21T22:07:11.487Z,4.16
2024-04-21T22:09:41.886Z,4.14
2024-04-21T22:12:13.449Z,4.12
2024-04-21T22:14:43.764Z,4.12
2024-04-21T22:17:15.417Z,4.13
2024-04-21T22:19:47.226Z,4.13
2024-04-21T22:22:18.849Z,4.11
2024-04-21T22:24:49.046Z,4.10
2024-04-21T22:27:20.509Z,4.10
2024-04-21T22:29:51.339Z,4.08
2024-04-21T22:32:23.082Z,4.05
2024-04-21T22:34:54.371Z,4.04
2024-04-21T22:37:25.815Z,4.03
2024-04-21T22:39:56.735Z,4.02
2024-04-21T22:42:28.347Z,4.00
2024-04-21T22:44:58.620Z,3.97
2024-04-21T22:47:30.649Z,3.96
2024-04-21T22:50:01.007Z,3.93
2024-04-21T22:52:32.589Z,3.88
2024-04-21T22:55:03.109Z,3.85
2024-04-21T22:57:34.757Z,3.83
2024-04-21T23:00:05.358Z,3.80
2024-04-21T23:02:36.957Z,3.77
2024-04-21T23:05:07.992Z,3.74
2024-04-21T23:07:39.598Z,3.72
2024-04-21T23:10:10.294Z,3.69
2024-04-21T23:12:41.821Z,3.65
2024-04-21T23:15:12.128Z,3.64
2024-04-21T23:17:43.492Z,3.63
2024-04-21T23:20:14.330Z,3.61
2024-04-21T23:22:45.547Z,3.60
2024-04-21T23:25:16.220Z,3.56
2024-04-21T23:27:47.536Z,3.53
2024-04-21T23:30:18.167Z,3.48
2024-04-21T23:32:49.555Z,3.45
2024-04-21T23:35:20.050Z,3.45
2024-04-21T23:37:51.392Z,3.45
2024-04-21T23:40:21.742Z,3.45
2024-04-21T23:42:53.168Z,3.46
2024-04-21T23:45:23.514Z,3.47
2024-04-21T23:47:56.562Z,3.48
2024-04-21T23:50:26.900Z,3.46
2024-04-21T23:52:58.391Z,3.43
2024-04-21T23:55:28.810Z,3.38
2024-04-21T23:58:00.150Z,3.36
